Time;durP1;ratioP1;P1;durP2;ratioP2;P2;SDS_P1;SDS_P2;PMS_P1;PMS_P2;Temp;Humidity;BMP_temperature;BMP_pressure;BME280_temperature;BME280_humidity;BME280_pressure;Samples;Min_cycle;Max_cycle;Signal;HPM_P1;HPM_P2
2023/12/24 00:00:49;;;;;;;5.88;2.33;;;;;;;9.56;100.00;100219.69;10500018;28;20072;-61
2023/12/24 00:06:11;;;;;;;13.68;5.43;;;;;;;9.56;100.00;100214.53;10503130;28;20036;-61
2023/12/24 00:11:33;;;;;;;10.23;4.93;;;;;;;9.51;100.00;100220.75;10504161;28;20044;-60
2023/12/24 00:16:55;;;;;;;4.80;2.40;;;;;;;9.57;100.00;100210.22;10510599;28;20075;-61
2023/12/24 00:22:16;;;;;;;6.00;1.75;;;;;;;9.58;100.00;100204.97;10516015;28;20097;-61
2023/12/24 00:27:38;;;;;;;6.63;1.70;;;;;;;9.61;100.00;100201.47;10499369;28;20062;-61
2023/12/24 00:33:00;;;;;;;8.20;2.33;;;;;;;9.58;100.00;100217.03;10505180;28;20436;-61
2023/12/24 00:38:21;;;;;;;5.43;1.90;;;;;;;9.57;100.00;100208.47;10509536;28;20488;-60
2023/12/24 00:43:45;;;;;;;5.43;2.17;;;;;;;9.65;100.00;100208.19;10511348;28;20067;-61
2023/12/24 00:49:06;;;;;;;7.30;2.08;;;;;;;9.58;100.00;100204.13;10510066;28;20150;-61
2023/12/24 00:54:28;;;;;;;7.50;2.10;;;;;;;9.62;100.00;100203.13;10518246;28;20066;-61
2023/12/24 00:59:50;;;;;;;8.65;2.20;;;;;;;9.55;100.00;100196.50;10511341;28;20434;-61
2023/12/24 01:05:12;;;;;;;9.60;2.90;;;;;;;9.58;100.00;100181.75;10509401;28;20060;-61
2023/12/24 01:10:34;;;;;;;8.38;2.67;;;;;;;9.52;100.00;100192.28;10505680;28;20048;-61
2023/12/24 01:15:55;;;;;;;9.10;2.60;;;;;;;9.55;100.00;100184.44;10509489;28;20044;-61
2023/12/24 01:21:17;;;;;;;9.70;2.47;;;;;;;9.59;100.00;100177.44;10514305;28;20467;-61
2023/12/24 01:26:39;;;;;;;6.13;2.53;;;;;;;9.58;100.00;100184.31;10508943;28;20500;-61
2023/12/24 01:32:00;;;;;;;9.52;3.15;;;;;;;9.60;100.00;100184.25;10512615;28;20404;-61
2023/12/24 01:37:22;;;;;;;8.82;2.90;;;;;;;9.58;100.00;100180.88;10504141;28;20071;-62
2023/12/24 01:42:45;;;;;;;9.23;2.53;;;;;;;9.59;100.00;100165.38;10507529;28;20518;-61
2023/12/24 01:48:07;;;;;;;7.90;2.80;;;;;;;9.60;100.00;100163.59;10504928;28;20052;-61
2023/12/24 01:53:31;;;;;;;7.32;2.70;;;;;;;9.58;100.00;100191.22;10510201;28;20531;-62
2023/12/24 01:58:53;;;;;;;7.95;2.72;;;;;;;9.67;100.00;100162.50;10511127;28;20408;-61
2023/12/24 02:04:16;;;;;;;13.65;3.00;;;;;;;9.61;100.00;100170.47;10512922;28;20544;-60
2023/12/24 02:09:37;;;;;;;10.88;2.78;;;;;;;9.63;100.00;100154.00;10510276;28;20449;-61
2023/12/24 02:14:59;;;;;;;7.18;2.80;;;;;;;9.64;100.00;100144.50;10509827;28;20058;-61
2023/12/24 02:20:25;;;;;;;9.23;2.88;;;;;;;9.72;100.00;100142.50;10506417;28;20052;-61
2023/12/24 02:25:50;;;;;;;9.20;3.00;;;;;;;9.69;100.00;100140.00;10502932;28;20055;-61
2023/12/24 02:31:15;;;;;;;10.27;2.75;;;;;;;9.65;100.00;100135.88;10512586;28;20127;-61
2023/12/24 02:36:39;;;;;;;9.15;2.90;;;;;;;9.67;100.00;100131.50;10521130;28;20054;-61
2023/12/24 02:42:00;;;;;;;5.68;2.45;;;;;;;9.71;100.00;100140.78;10508411;28;20055;-62
2023/12/24 02:47:22;;;;;;;8.18;2.35;;;;;;;9.65;100.00;100146.22;10503265;28;20044;-61
2023/12/24 02:52:44;;;;;;;9.32;2.47;;;;;;;9.66;100.00;100129.81;10507726;28;20105;-61
2023/12/24 02:58:06;;;;;;;4.72;2.00;;;;;;;9.69;100.00;100127.94;10492473;28;20556;-61
2023/12/24 03:03:28;;;;;;;7.10;2.05;;;;;;;9.64;100.00;100123.84;10505485;28;20039;-61
2023/12/24 03:08:49;;;;;;;6.10;1.77;;;;;;;9.66;100.00;100124.63;10492836;28;20131;-61
2023/12/24 03:14:11;;;;;;;7.40;1.75;;;;;;;9.64;100.00;100103.19;10502389;28;20135;-61
2023/12/24 03:19:33;;;;;;;4.60;1.75;;;;;;;9.65;100.00;100099.72;10502164;28;20048;-61
2023/12/24 03:24:55;;;;;;;4.80;1.95;;;;;;;9.61;100.00;100109.31;10503716;28;20404;-60
2023/12/24 03:30:17;;;;;;;2.28;1.30;;;;;;;9.64;100.00;100082.53;10508373;28;20126;-61
2023/12/24 03:35:39;;;;;;;4.78;1.50;;;;;;;9.63;100.00;100089.41;10506586;28;20166;-61
2023/12/24 03:41:01;;;;;;;3.65;1.50;;;;;;;9.68;100.00;100084.94;10501926;28;20048;-61
2023/12/24 03:46:23;;;;;;;1.67;1.02;;;;;;;9.66;100.00;100085.88;10503998;28;20139;-61
2023/12/24 03:51:45;;;;;;;2.42;1.00;;;;;;;9.69;100.00;100088.34;10505280;28;20096;-61
2023/12/24 03:57:06;;;;;;;3.33;1.13;;;;;;;9.68;100.00;100084.94;10503688;28;20054;-61
2023/12/24 04:02:28;;;;;;;1.92;1.00;;;;;;;9.65;100.00;100071.31;10502620;28;20051;-61
2023/12/24 04:07:50;;;;;;;2.97;0.98;;;;;;;9.64;100.00;100070.44;10489788;28;20125;-61
2023/12/24 04:13:11;;;;;;;2.28;1.00;;;;;;;9.69;100.00;100062.50;10501851;28;20039;-61
2023/12/24 04:18:34;;;;;;;2.25;0.73;;;;;;;9.66;100.00;100054.91;10483687;28;20044;-61
2023/12/24 04:23:56;;;;;;;2.05;0.80;;;;;;;9.70;100.00;100053.88;10504013;28;20473;-61
2023/12/24 04:29:17;;;;;;;1.80;0.90;;;;;;;9.73;100.00;100046.00;10512429;28;20049;-61
2023/12/24 04:34:39;;;;;;;4.18;1.00;;;;;;;9.69;100.00;100037.53;10508239;28;20044;-61
2023/12/24 04:40:01;;;;;;;0.90;0.80;;;;;;;9.72;100.00;100039.16;10506112;28;20123;-62
2023/12/24 04:45:22;;;;;;;1.58;0.93;;;;;;;9.73;100.00;100033.09;10499396;28;20604;-61
2023/12/24 04:50:44;;;;;;;1.92;1.00;;;;;;;9.81;100.00;100031.91;10492817;28;20047;-61
2023/12/24 04:56:06;;;;;;;1.30;1.00;;;;;;;9.78;100.00;100005.31;10505406;28;20052;-61
2023/12/24 05:01:28;;;;;;;2.42;1.20;;;;;;;9.72;100.00;100003.00;10506078;28;20040;-61
2023/12/24 05:06:49;;;;;;;1.85;1.30;;;;;;;9.81;100.00;100007.78;10501919;28;20056;-61
2023/12/24 05:12:11;;;;;;;1.80;1.30;;;;;;;9.82;100.00;100017.22;10517250;28;20036;-60
2023/12/24 05:17:33;;;;;;;3.30;1.50;;;;;;;9.81;100.00;100003.47;10510256;28;20075;-61
2023/12/24 05:22:56;;;;;;;2.83;1.38;;;;;;;9.82;100.00;99999.13;10503708;28;20512;-61
2023/12/24 05:28:18;;;;;;;3.00;1.40;;;;;;;9.88;100.00;100004.91;10514659;28;20138;-61
2023/12/24 05:33:40;;;;;;;2.17;1.45;;;;;;;9.86;100.00;99995.53;10511488;28;20182;-61
2023/12/24 05:39:03;;;;;;;4.53;1.40;;;;;;;9.84;100.00;100005.94;10520213;28;20480;-61
2023/12/24 05:44:25;;;;;;;1.30;1.20;;;;;;;9.87;100.00;99997.22;10511065;28;20040;-61
2023/12/24 05:49:46;;;;;;;1.20;1.10;;;;;;;9.87;100.00;100002.41;10507353;28;20519;-61
2023/12/24 05:55:10;;;;;;;2.33;1.17;;;;;;;9.87;100.00;99995.47;10507235;28;20488;-61
2023/12/24 06:00:32;;;;;;;2.00;1.08;;;;;;;9.92;100.00;99990.13;10510524;28;20296;-61
2023/12/24 06:05:57;;;;;;;1.55;1.10;;;;;;;9.95;100.00;99980.50;10520944;28;20066;-60
2023/12/24 06:11:19;;;;;;;1.98;0.95;;;;;;;9.94;100.00;99973.63;10537540;28;20468;-61
2023/12/24 06:16:41;;;;;;;1.48;0.80;;;;;;;9.98;100.00;99966.63;10514986;28;20126;-60
2023/12/24 06:22:02;;;;;;;2.13;0.90;;;;;;;10.00;100.00;99972.53;10520494;28;20048;-61
2023/12/24 06:27:24;;;;;;;0.68;0.65;;;;;;;9.98;100.00;99951.13;10515128;28;20052;-61
2023/12/24 06:32:46;;;;;;;1.27;0.82;;;;;;;10.06;100.00;99951.63;10533808;28;20055;-62
2023/12/24 06:38:08;;;;;;;1.05;0.80;;;;;;;10.04;100.00;99943.94;10517343;28;20051;-61
2023/12/24 06:43:30;;;;;;;0.70;0.70;;;;;;;10.11;100.00;99939.34;10515902;28;20047;-61
2023/12/24 06:48:52;;;;;;;0.80;0.80;;;;;;;10.10;100.00;99945.44;10522172;28;20066;-61
2023/12/24 06:54:14;;;;;;;2.05;0.90;;;;;;;10.10;100.00;99942.88;10518467;28;20044;-61
2023/12/24 06:59:36;;;;;;;1.10;0.98;;;;;;;10.13;100.00;99937.56;10518441;28;20134;-61
2023/12/24 07:04:58;;;;;;;0.88;0.88;;;;;;;10.13;100.00;99935.81;10513374;28;20048;-61
2023/12/24 07:10:19;;;;;;;0.90;0.90;;;;;;;10.17;100.00;99917.56;10504747;28;20047;-61
2023/12/24 07:15:42;;;;;;;1.13;1.10;;;;;;;10.20;100.00;99918.28;10499252;28;20137;-61
2023/12/24 07:21:04;;;;;;;1.45;1.05;;;;;;;10.25;100.00;99916.38;10505110;28;20052;-61
2023/12/24 07:26:26;;;;;;;1.10;1.00;;;;;;;10.23;100.00;99922.50;10501755;28;20063;-61
2023/12/24 07:31:48;;;;;;;1.00;1.00;;;;;;;10.27;100.00;99914.56;10502871;28;20036;-61
2023/12/24 07:37:09;;;;;;;1.92;1.15;;;;;;;10.28;100.00;99920.53;10502630;28;20040;-61
2023/12/24 07:42:31;;;;;;;2.42;1.38;;;;;;;10.31;100.00;99925.59;10506912;28;20074;-61
2023/12/24 07:47:53;;;;;;;1.75;1.40;;;;;;;10.34;100.00;99915.97;10509992;28;20048;-61
2023/12/24 07:53:14;;;;;;;1.30;1.20;;;;;;;10.38;100.00;99902.00;10504181;28;20044;-62
2023/12/24 07:58:36;;;;;;;1.77;1.40;;;;;;;10.40;100.00;99917.44;10503037;28;20097;-61
2023/12/24 08:03:58;;;;;;;2.63;1.70;;;;;;;10.41;100.00;99922.53;10506254;28;20105;-61
2023/12/24 08:09:20;;;;;;;3.40;1.90;;;;;;;10.45;100.00;99910.31;10501347;28;20053;-61
2023/12/24 08:14:41;;;;;;;3.35;1.90;;;;;;;10.55;100.00;99896.88;10500338;28;20047;-61
2023/12/24 08:20:03;;;;;;;2.55;2.00;;;;;;;10.56;100.00;99902.91;10498235;28;20064;-61
2023/12/24 08:25:25;;;;;;;4.43;2.50;;;;;;;10.55;100.00;99904.66;10503316;28;20180;-61
2023/12/24 08:30:47;;;;;;;4.05;2.47;;;;;;;10.58;100.00;99901.94;10497474;28;20048;-61
2023/12/24 08:36:10;;;;;;;5.20;3.50;;;;;;;10.60;100.00;99907.88;10510118;28;20101;-61
2023/12/24 08:41:31;;;;;;;5.72;2.60;;;;;;;10.63;100.00;99907.75;10513825;28;20077;-61
2023/12/24 08:46:53;;;;;;;4.43;2.88;;;;;;;10.67;100.00;99893.78;10501789;28;20552;-61
2023/12/24 08:52:15;;;;;;;4.68;2.95;;;;;;;10.72;100.00;99884.03;10500343;28;20054;-61
2023/12/24 08:57:36;;;;;;;5.00;2.58;;;;;;;10.77;100.00;99892.44;10508275;28;20052;-61
2023/12/24 09:02:58;;;;;;;5.70;2.72;;;;;;;10.85;100.00;99879.97;10510241;28;20419;-61
2023/12/24 09:08:20;;;;;;;6.70;3.30;;;;;;;10.88;100.00;99891.91;10507498;28;20443;-62
2023/12/24 09:13:41;;;;;;;6.63;2.67;;;;;;;10.95;100.00;99880.41;10506687;28;20044;-61
2023/12/24 09:19:03;;;;;;;3.90;3.03;;;;;;;10.98;100.00;99886.28;10510364;28;20554;-61
2023/12/24 09:24:25;;;;;;;6.97;2.85;;;;;;;10.97;100.00;99897.50;10493258;28;20480;-60
2023/12/24 09:29:46;;;;;;;5.10;3.10;;;;;;;11.03;100.00;99888.63;10513583;28;20050;-61
2023/12/24 09:35:09;;;;;;;5.18;3.10;;;;;;;11.11;100.00;99889.94;10511229;28;20044;-61
2023/12/24 09:40:30;;;;;;;9.20;3.33;;;;;;;11.10;100.00;99882.25;10516187;28;20052;-61
2023/12/24 09:45:52;;;;;;;10.32;3.72;;;;;;;11.13;100.00;99892.47;10504683;28;20059;-61
2023/12/24 09:51:14;;;;;;;8.82;4.03;;;;;;;11.25;100.00;99889.28;10512361;28;20473;-61
2023/12/24 09:56:35;;;;;;;9.82;3.63;;;;;;;11.25;100.00;99896.22;10502695;28;20044;-61
2023/12/24 10:01:57;;;;;;;10.07;3.78;;;;;;;11.29;100.00;99877.03;10509763;28;20048;-60
2023/12/24 10:07:19;;;;;;;7.35;3.35;;;;;;;11.30;100.00;99874.34;10492872;28;20485;-60
2023/12/24 10:12:42;;;;;;;10.10;3.88;;;;;;;11.34;100.00;99880.22;10507939;28;20063;-61
2023/12/24 10:18:17;;;;;;;7.90;3.03;;;;;;;11.39;100.00;99883.47;10507808;28;20040;-61
2023/12/24 10:23:40;;;;;;;;;;;;;;;11.42;100.00;99850.47;10507436;28;20101;-61
2023/12/24 10:29:01;;;;;;;4.30;2.05;;;;;;;11.45;100.00;99850.31;10521159;28;20027;-62
2023/12/24 10:34:37;;;;;;;7.68;2.22;;;;;;;11.43;100.00;99838.34;10519343;28;20396;-60
2023/12/24 10:40:07;;;;;;;6.95;2.33;;;;;;;11.44;100.00;99843.47;10509873;28;20557;-61
2023/12/24 10:45:29;;;;;;;4.50;2.13;;;;;;;11.48;100.00;99846.75;10513926;28;20047;-62
2023/12/24 10:50:51;;;;;;;3.67;1.80;;;;;;;11.54;100.00;99841.22;10508829;28;20059;-62
2023/12/24 10:56:19;;;;;;;4.70;1.90;;;;;;;11.56;100.00;99834.22;10504585;28;20052;-62
2023/12/24 11:01:45;;;;;;;3.17;1.70;;;;;;;11.57;100.00;99826.41;10497907;28;20580;-62
2023/12/24 11:07:07;;;;;;;3.53;1.60;;;;;;;11.60;100.00;99822.81;10500513;28;20049;-61
2023/12/24 11:12:36;;;;;;;2.60;1.40;;;;;;;11.63;100.00;99807.94;10499842;28;20048;-62
2023/12/24 11:17:58;;;;;;;3.35;1.70;;;;;;;11.64;100.00;99794.06;10508564;28;20040;-61
2023/12/24 11:23:20;;;;;;;0.98;0.90;;;;;;;11.64;100.00;99795.81;10510039;28;20056;-61
2023/12/24 11:28:42;;;;;;;2.78;1.20;;;;;;;11.68;100.00;99792.19;10499015;28;20059;-62
2023/12/24 11:34:03;;;;;;;3.15;1.10;;;;;;;11.73;100.00;99787.59;10508373;28;20139;-62
2023/12/24 11:39:25;;;;;;;2.72;1.65;;;;;;;11.70;100.00;99780.00;10504539;28;20064;-61
2023/12/24 11:44:54;;;;;;;2.35;1.73;;;;;;;11.70;100.00;99780.81;10497093;28;20063;-61
2023/12/24 11:50:18;;;;;;;2.38;1.15;;;;;;;11.74;100.00;99773.72;10500164;28;20063;-62
2023/12/24 11:55:40;;;;;;;1.75;1.20;;;;;;;11.81;100.00;99762.16;10506885;28;20042;-61
2023/12/24 12:01:02;;;;;;;3.83;1.45;;;;;;;11.81;100.00;99755.19;10504187;28;20084;-62
2023/12/24 12:06:35;;;;;;;5.38;1.55;;;;;;;11.85;100.00;99748.94;10502779;28;20614;-62
2023/12/24 12:11:57;;;;;;;11.35;2.10;;;;;;;11.89;100.00;99737.47;10523637;28;20077;-62
2023/12/24 12:17:19;;;;;;;8.00;2.15;;;;;;;11.93;100.00;99725.19;10519667;28;20082;-62
2023/12/24 12:22:41;;;;;;;8.38;2.70;;;;;;;12.00;100.00;99710.97;10526930;28;20169;-62
2023/12/24 12:28:03;;;;;;;12.93;2.97;;;;;;;12.05;100.00;99711.56;10521617;28;20134;-63
2023/12/24 12:33:25;;;;;;;13.93;3.00;;;;;;;12.12;100.00;99707.75;10505259;28;20381;-62
2023/12/24 12:38:46;;;;;;;12.18;3.10;;;;;;;12.15;100.00;99702.38;10508081;28;20055;-61
2023/12/24 12:44:08;;;;;;;10.20;3.00;;;;;;;12.15;100.00;99699.78;10512128;28;20041;-61
2023/12/24 12:49:31;;;;;;;12.63;3.13;;;;;;;12.14;100.00;99705.91;10510054;28;20045;-60
2023/12/24 12:55:06;;;;;;;6.45;2.67;;;;;;;12.15;100.00;99707.56;10507506;28;20408;-61
2023/12/24 13:00:30;;;;;;;6.50;2.70;;;;;;;12.19;100.00;99716.84;10513643;28;20040;-61
2023/12/24 13:05:52;;;;;;;8.65;2.10;;;;;;;12.21;100.00;99707.25;10502224;28;20052;-61
2023/12/24 13:11:13;;;;;;;6.05;1.80;;;;;;;12.23;100.00;99702.81;10524682;28;20045;-61
2023/12/24 13:16:35;;;;;;;6.85;2.17;;;;;;;12.24;100.00;99686.31;10507205;28;20044;-60
2023/12/24 13:21:57;;;;;;;6.63;1.88;;;;;;;12.26;100.00;99671.50;10514336;28;20147;-61
2023/12/24 13:27:19;;;;;;;7.80;2.00;;;;;;;12.25;100.00;99682.78;10515047;28;20386;-61
2023/12/24 13:32:41;;;;;;;7.38;1.70;;;;;;;12.22;100.00;99654.44;10497896;28;20117;-60
2023/12/24 13:38:08;;;;;;;3.55;1.05;;;;;;;12.20;100.00;99648.50;10485752;28;20423;-60
2023/12/24 13:43:29;;;;;;;1.63;0.90;;;;;;;12.23;100.00;99650.94;10510152;28;20050;-61
2023/12/24 13:48:52;;;;;;;2.58;1.00;;;;;;;12.18;100.00;99627.00;10504391;28;20044;-60
2023/12/24 13:54:14;;;;;;;2.63;0.90;;;;;;;12.19;100.00;99628.69;10513242;28;20044;-60
2023/12/24 13:59:36;;;;;;;1.58;0.90;;;;;;;12.16;100.00;99617.66;10508002;28;20052;-61
2023/12/24 14:04:58;;;;;;;4.55;1.08;;;;;;;12.16;100.00;99623.66;10508497;28;20048;-60
2023/12/24 14:10:19;;;;;;;1.88;0.80;;;;;;;12.19;100.00;99633.88;10507937;28;20075;-62
2023/12/24 14:15:41;;;;;;;2.22;1.08;;;;;;;12.20;100.00;99614.78;10516131;28;20036;-61
2023/12/24 14:21:02;;;;;;;2.03;1.00;;;;;;;12.18;100.00;99590.69;10498845;28;20048;-62
2023/12/24 14:26:24;;;;;;;1.88;1.00;;;;;;;12.25;100.00;99612.75;10506195;28;20044;-61
2023/12/24 14:31:46;;;;;;;2.42;0.98;;;;;;;12.22;100.00;99609.50;10505735;28;20084;-62
2023/12/24 14:37:07;;;;;;;3.40;1.10;;;;;;;12.20;100.00;99599.22;10511968;28;20044;-63
2023/12/24 14:42:29;;;;;;;1.73;0.82;;;;;;;12.21;100.00;99580.16;10507668;28;20123;-60
2023/12/24 14:47:51;;;;;;;1.10;0.82;;;;;;;12.24;100.00;99560.97;10527526;28;20064;-63
2023/12/24 14:53:13;;;;;;;1.55;1.10;;;;;;;12.21;100.00;99559.41;10511404;28;20499;-63
2023/12/24 14:58:34;;;;;;;0.93;0.70;;;;;;;12.28;100.00;99585.81;10508272;28;20071;-63
2023/12/24 15:03:56;;;;;;;2.88;0.80;;;;;;;12.35;100.00;99562.03;10507603;28;20118;-62
2023/12/24 15:09:18;;;;;;;0.82;0.73;;;;;;;12.36;100.00;99568.06;10504382;28;20550;-63
2023/12/24 15:14:40;;;;;;;1.45;0.88;;;;;;;12.35;100.00;99590.56;10495708;28;20067;-63
2023/12/24 15:20:03;;;;;;;2.20;0.90;;;;;;;12.39;100.00;99586.03;10475780;28;20106;-63
2023/12/24 15:25:26;;;;;;;2.60;0.90;;;;;;;12.42;100.00;99563.34;10500552;28;20492;-63
2023/12/24 15:30:48;;;;;;;2.75;0.90;;;;;;;12.46;100.00;99538.91;10509394;28;20056;-63
2023/12/24 15:36:10;;;;;;;3.78;0.90;;;;;;;12.38;100.00;99527.31;10501090;28;20810;-63
2023/12/24 15:41:31;;;;;;;3.13;0.90;;;;;;;12.42;100.00;99552.13;10510344;28;20047;-63
2023/12/24 15:46:53;;;;;;;1.65;0.77;;;;;;;12.45;100.00;99542.44;10503006;28;20106;-63
2023/12/24 15:52:16;;;;;;;2.00;0.93;;;;;;;12.46;100.00;99564.84;10507628;28;20062;-63
2023/12/24 15:57:39;;;;;;;1.42;0.90;;;;;;;12.51;100.00;99578.38;10493393;28;20074;-63
2023/12/24 16:03:00;;;;;;;1.35;0.88;;;;;;;12.54;100.00;99573.03;10500273;28;20606;-63
2023/12/24 16:08:22;;;;;;;2.15;0.88;;;;;;;12.62;100.00;99594.16;10498666;28;20044;-63
2023/12/24 16:13:44;;;;;;;2.08;0.90;;;;;;;12.59;100.00;99602.16;10503006;28;20466;-64
2023/12/24 16:19:06;;;;;;;1.85;0.80;;;;;;;12.59;100.00;99602.16;10509804;28;20052;-63
2023/12/24 16:24:29;;;;;;;2.33;0.90;;;;;;;12.63;100.00;99602.78;10503282;28;20045;-63
2023/12/24 16:29:50;;;;;;;2.10;0.90;;;;;;;12.60;100.00;99618.56;10498765;28;20045;-63
2023/12/24 16:35:12;;;;;;;2.28;1.00;;;;;;;12.64;100.00;99630.41;10481802;28;20580;-63
2023/12/24 16:40:34;;;;;;;2.03;1.00;;;;;;;12.64;100.00;99625.22;10501942;28;20059;-63
2023/12/24 16:45:55;;;;;;;3.00;1.20;;;;;;;12.62;100.00;99606.31;10498969;28;20048;-63
2023/12/24 16:51:18;;;;;;;2.30;1.20;;;;;;;12.66;100.00;99603.47;10495355;28;20632;-63
2023/12/24 16:56:40;;;;;;;4.70;1.23;;;;;;;12.72;100.00;99592.72;10504478;28;21492;-63
2023/12/24 17:02:04;;;;;;;3.25;1.30;;;;;;;12.76;100.00;99603.75;10507748;28;20048;-62
2023/12/24 17:07:25;;;;;;;5.38;1.45;;;;;;;12.71;100.00;99601.41;10507762;28;20039;-62
2023/12/24 17:12:47;;;;;;;4.40;1.58;;;;;;;12.75;100.00;99597.72;10509801;28;20055;-62
2023/12/24 17:18:12;;;;;;;2.67;1.33;;;;;;;12.70;100.00;99585.94;10504678;28;20064;-63
2023/12/24 17:23:33;;;;;;;7.30;1.90;;;;;;;12.77;100.00;99572.50;10501604;28;20048;-63
2023/12/24 17:28:55;;;;;;;5.18;1.73;;;;;;;12.69;100.00;99592.06;10510055;28;20465;-63
2023/12/24 17:34:17;;;;;;;2.40;1.58;;;;;;;12.70;100.00;99589.38;10508013;28;20762;-63
2023/12/24 17:39:42;;;;;;;1.95;1.08;;;;;;;12.62;100.00;99581.19;10508408;28;20117;-63
2023/12/24 17:45:04;;;;;;;3.25;1.42;;;;;;;12.63;100.00;99587.22;10506952;28;20163;-60
2023/12/24 17:50:25;;;;;;;3.28;1.77;;;;;;;12.68;100.00;99575.66;10508655;28;20048;-61
2023/12/24 17:55:47;;;;;;;5.30;1.85;;;;;;;12.71;100.00;99585.84;10503881;28;20068;-61
2023/12/24 18:01:09;;;;;;;10.65;1.92;;;;;;;12.81;100.00;99606.91;10505624;28;20047;-60
2023/12/24 18:06:31;;;;;;;9.98;2.40;;;;;;;12.84;100.00;99596.34;10505856;28;20128;-61
2023/12/24 18:11:53;;;;;;;9.98;2.22;;;;;;;12.89;100.00;99595.13;10511570;28;20066;-61
2023/12/24 18:17:15;;;;;;;8.65;2.42;;;;;;;12.96;100.00;99612.06;10500936;28;20182;-61
2023/12/24 18:22:36;;;;;;;12.90;2.40;;;;;;;12.93;100.00;99596.63;10500807;28;20048;-61
2023/12/24 18:27:58;;;;;;;11.38;2.60;;;;;;;12.96;100.00;99604.25;10509678;28;20048;-62
2023/12/24 18:33:21;;;;;;;14.02;2.97;;;;;;;12.94;100.00;99619.09;10496223;28;20043;-62
2023/12/24 18:38:43;;;;;;;13.93;2.67;;;;;;;12.93;100.00;99627.78;10510898;28;20048;-62
2023/12/24 18:44:08;;;;;;;16.38;2.67;;;;;;;12.99;100.00;99606.66;10505766;28;20485;-62
2023/12/24 18:49:30;;;;;;;12.93;2.38;;;;;;;12.99;100.00;99601.47;10505202;28;20381;-60
2023/12/24 18:54:52;;;;;;;11.88;2.78;;;;;;;13.11;100.00;99605.94;10498156;28;20124;-60
2023/12/24 19:00:14;;;;;;;14.88;3.45;;;;;;;13.07;100.00;99614.84;10506149;28;20504;-59
2023/12/24 19:05:36;;;;;;;18.02;2.97;;;;;;;13.10;100.00;99608.66;10508051;28;20525;-60
2023/12/24 19:10:58;;;;;;;15.18;3.05;;;;;;;13.15;100.00;99627.38;10537754;28;20140;-60
2023/12/24 19:16:19;;;;;;;12.40;2.42;;;;;;;13.25;100.00;99627.66;10506324;28;20047;-60
2023/12/24 19:21:41;;;;;;;21.35;2.85;;;;;;;13.24;100.00;99626.00;10506065;28;20056;-63
2023/12/24 19:27:03;;;;;;;12.73;2.60;;;;;;;13.24;100.00;99639.00;10515046;28;20048;-63
2023/12/24 19:32:25;;;;;;;13.07;2.28;;;;;;;13.37;100.00;99645.13;10512403;28;20124;-62
2023/12/24 19:37:47;;;;;;;14.63;2.70;;;;;;;13.32;100.00;99623.78;10508857;28;20056;-62
2023/12/24 19:43:08;;;;;;;12.98;2.45;;;;;;;13.27;100.00;99636.22;10508632;28;20802;-62
2023/12/24 19:48:30;;;;;;;9.80;2.38;;;;;;;13.28;100.00;99637.88;10499969;28;20075;-62
2023/12/24 19:53:52;;;;;;;16.17;3.63;;;;;;;13.13;100.00;99640.47;10505248;28;20047;-63
2023/12/24 19:59:14;;;;;;;8.07;2.28;;;;;;;13.02;100.00;99650.66;10507836;28;20135;-63
2023/12/24 20:04:39;;;;;;;13.02;2.40;;;;;;;13.00;100.00;99665.44;10498819;28;20044;-63
2023/12/24 20:10:02;;;;;;;14.10;2.63;;;;;;;12.95;100.00;99670.09;10512683;28;20048;-63
2023/12/24 20:15:23;;;;;;;13.82;2.45;;;;;;;12.92;100.00;99687.59;10501012;28;20139;-62
2023/12/24 20:20:45;;;;;;;11.45;1.88;;;;;;;12.97;100.00;99706.34;10503977;28;20044;-62
2023/12/24 20:26:07;;;;;;;13.35;2.40;;;;;;;12.98;100.00;99695.88;10506041;28;20048;-62
2023/12/24 20:31:29;;;;;;;10.07;1.75;;;;;;;13.13;100.00;99706.34;10492696;28;20044;-62
2023/12/24 20:36:50;;;;;;;8.85;1.83;;;;;;;13.11;100.00;99728.03;10478570;28;1117108;-61
2023/12/24 20:42:12;;;;;;;10.73;1.90;;;;;;;13.04;100.00;99739.69;10483629;28;20135;-63
2023/12/24 20:47:34;;;;;;;12.60;2.10;;;;;;;12.99;100.00;99735.66;10506336;28;20501;-62
2023/12/24 20:52:55;;;;;;;10.27;1.92;;;;;;;13.07;100.00;99769.88;10506910;28;20050;-62
2023/12/24 20:58:17;;;;;;;10.95;2.10;;;;;;;12.98;100.00;99762.56;10499520;28;20050;-61
2023/12/24 21:03:39;;;;;;;9.07;1.83;;;;;;;12.93;100.00;99762.81;10503199;28;20040;-62
2023/12/24 21:09:00;;;;;;;16.52;2.53;;;;;;;12.87;100.00;99789.13;10500183;28;20147;-62
2023/12/24 21:14:23;;;;;;;13.48;2.00;;;;;;;12.83;100.00;99782.44;10501615;28;20043;-61
2023/12/24 21:19:45;;;;;;;5.95;1.20;;;;;;;12.91;100.00;99790.63;10505957;28;20057;-61
2023/12/24 21:25:07;;;;;;;10.73;1.83;;;;;;;12.86;97.40;99792.66;10497650;28;20048;-63
2023/12/24 21:30:32;;;;;;;8.38;1.63;;;;;;;12.76;98.59;99795.84;10499096;28;20052;-62
2023/12/24 21:35:54;;;;;;;12.38;1.90;;;;;;;12.68;99.45;99796.28;10503485;28;20370;-62
2023/12/24 21:41:16;;;;;;;11.02;2.15;;;;;;;12.72;99.71;99805.56;10507031;28;20080;-63
2023/12/24 21:46:44;;;;;;;8.15;1.92;;;;;;;12.70;98.79;99812.59;10505283;28;20048;-63
2023/12/24 21:52:05;;;;;;;12.57;1.65;;;;;;;12.75;99.75;99805.38;10507792;28;20097;-63
2023/12/24 21:57:27;;;;;;;12.52;1.88;;;;;;;12.84;98.12;99830.00;10493360;28;20044;-62
2023/12/24 22:02:48;;;;;;;11.93;1.70;;;;;;;12.86;97.94;99838.53;10503947;28;20429;-63
2023/12/24 22:08:10;;;;;;;9.23;1.50;;;;;;;12.85;97.05;99839.47;10499620;28;20048;-62
2023/12/24 22:13:36;;;;;;;9.90;1.77;;;;;;;12.90;97.01;99842.66;10500570;28;20425;-62
2023/12/24 22:18:57;;;;;;;9.70;1.67;;;;;;;12.86;97.74;99844.59;10495195;28;20052;-63
2023/12/24 22:24:22;;;;;;;6.70;1.52;;;;;;;12.99;95.08;99849.94;10508600;28;20048;-62
2023/12/24 22:29:44;;;;;;;6.80;1.27;;;;;;;12.94;95.21;99852.81;10490327;28;20056;-63
2023/12/24 22:35:06;;;;;;;9.70;1.77;;;;;;;12.85;94.49;99848.13;10502318;28;20036;-63
2023/12/24 22:40:28;;;;;;;8.88;1.40;;;;;;;12.85;93.75;99831.69;10507724;28;20044;-63
2023/12/24 22:45:50;;;;;;;5.53;1.25;;;;;;;12.84;94.63;99846.41;10485674;28;20060;-63
2023/12/24 22:51:16;;;;;;;10.52;1.63;;;;;;;12.81;93.49;99836.22;10501625;28;20052;-63
2023/12/24 22:56:38;;;;;;;9.73;1.50;;;;;;;12.79;94.44;99842.41;10503744;28;20066;-63
2023/12/24 23:02:02;;;;;;;8.13;1.15;;;;;;;12.69;95.23;99846.44;10494880;28;20477;-62
2023/12/24 23:07:24;;;;;;;11.38;1.48;;;;;;;12.63;96.03;99847.59;10503243;28;20040;-63
2023/12/24 23:12:45;;;;;;;10.45;1.52;;;;;;;12.63;96.54;99858.00;10498545;28;20045;-63
2023/12/24 23:18:07;;;;;;;9.45;1.70;;;;;;;12.59;97.57;99856.47;10499356;28;20044;-63
2023/12/24 23:23:29;;;;;;;16.08;1.83;;;;;;;12.60;98.35;99862.50;10509592;28;20051;-63
2023/12/24 23:28:51;;;;;;;12.05;2.00;;;;;;;12.64;98.62;99849.28;10499996;28;20075;-63
2023/12/24 23:34:12;;;;;;;9.13;1.48;;;;;;;12.65;98.49;99840.56;10505966;28;20071;-63
2023/12/24 23:39:34;;;;;;;9.70;1.70;;;;;;;12.69;99.03;99825.69;10508077;28;20113;-63
2023/12/24 23:44:56;;;;;;;13.50;1.83;;;;;;;12.63;99.90;99851.94;10501833;28;20051;-63
2023/12/24 23:50:20;;;;;;;7.95;1.60;;;;;;;12.62;99.86;99834.69;10503391;28;20413;-63
2023/12/24 23:55:42;;;;;;;8.70;1.63;;;;;;;12.65;100.00;99850.97;10489498;28;20047;-63
